Time;durP1;ratioP1;P1;durP2;ratioP2;P2;SDS_P1;SDS_P2;PMS_P1;PMS_P2;Temp;Humidity;BMP_temperature;BMP_pressure;BME280_temperature;BME280_humidity;BME280_pressure;Samples;Min_cycle;Max_cycle;Signal;HPM_P1;HPM_P2
2023/09/18 00:00:44;;;;;;;13.73;7.78;;;;;;;22.29;54.32;100006.06;7556075;33;39383;-80
2023/09/18 00:05:00;;;;;;;16.08;7.30;;;;;;;22.24;54.43;100005.47;7555571;33;39707;-80
2023/09/18 00:09:16;;;;;;;11.98;7.62;;;;;;;22.21;54.63;100003.37;7556180;33;36077;-80
2023/09/18 00:13:33;;;;;;;12.57;7.40;;;;;;;22.31;54.30;100000.16;7555903;33;37921;-80
2023/09/18 00:17:49;;;;;;;10.35;6.70;;;;;;;22.26;54.45;99997.59;7555833;33;39451;-79
2023/09/18 00:22:06;;;;;;;13.73;7.20;;;;;;;22.23;54.54;99996.34;7555718;33;40812;-80
2023/09/18 00:26:22;;;;;;;11.10;6.78;;;;;;;22.02;55.10;99979.75;7555650;33;37812;-80
2023/09/18 00:30:43;;;;;;;12.63;7.10;;;;;;;22.18;54.74;99988.22;7555685;33;37839;-80
2023/09/18 00:34:59;;;;;;;11.43;7.12;;;;;;;22.05;55.07;99990.16;7542918;33;39418;-80
2023/09/18 00:39:15;;;;;;;14.57;7.90;;;;;;;22.03;55.12;99997.22;7555579;33;40225;-80
2023/09/18 00:43:31;;;;;;;14.20;7.60;;;;;;;21.94;55.43;99991.78;7555449;33;38827;-79
2023/09/18 00:47:48;;;;;;;12.57;6.65;;;;;;;21.98;55.30;99984.38;7555519;33;37001;-80
2023/09/18 00:52:05;;;;;;;13.55;7.45;;;;;;;21.78;55.99;99991.59;7555242;33;39937;-79
2023/09/18 00:56:21;;;;;;;10.70;6.78;;;;;;;21.65;56.32;99995.50;7554218;33;40934;-80
2023/09/18 01:00:40;;;;;;;9.68;6.62;;;;;;;21.66;56.44;100000.72;7555438;33;38071;-79
2023/09/18 01:04:57;;;;;;;12.77;7.40;;;;;;;21.78;56.10;99990.78;7555173;33;36916;-80
2023/09/18 01:09:14;;;;;;;12.48;7.43;;;;;;;21.55;56.82;99999.50;7555314;33;40123;-80
2023/09/18 01:13:52;;;;;;;12.73;7.95;;;;;;;21.68;56.31;99995.63;7553997;33;40808;-80
2023/09/18 01:18:09;;;;;;;14.00;7.75;;;;;;;21.66;56.42;99995.16;7538894;33;38716;-80
2023/09/18 01:22:30;;;;;;;11.12;7.45;;;;;;;21.54;56.73;99989.53;7555076;33;37066;-80
2023/09/18 01:26:47;;;;;;;12.20;7.80;;;;;;;21.47;56.98;99981.81;7554181;33;40038;-79
2023/09/18 01:31:03;;;;;;;13.35;7.80;;;;;;;21.43;56.98;99982.78;7555102;33;40069;-80
2023/09/18 01:35:20;;;;;;;12.25;6.90;;;;;;;21.38;57.31;99986.56;7554924;33;37883;-80
2023/09/18 01:39:38;;;;;;;14.02;7.90;;;;;;;21.43;57.12;99982.78;7554731;33;37107;-79
2023/09/18 01:43:55;;;;;;;10.60;7.47;;;;;;;21.45;56.93;99986.03;7554711;33;40100;-81
2023/09/18 01:48:11;;;;;;;10.93;6.95;;;;;;;21.25;57.54;99985.72;7541558;33;40079;-81
2023/09/18 01:52:27;;;;;;;11.85;7.78;;;;;;;21.35;57.14;99979.75;7554754;33;39011;-80
2023/09/18 01:56:44;;;;;;;12.35;7.40;;;;;;;21.29;57.34;99992.19;7554798;33;37101;-80
2023/09/18 02:01:04;;;;;;;14.13;6.95;;;;;;;21.31;57.24;99986.31;7554513;33;39872;-81
2023/09/18 02:05:21;;;;;;;13.05;7.20;;;;;;;21.31;57.24;99976.03;7554154;33;40008;-80
2023/09/18 02:09:37;;;;;;;19.17;7.47;;;;;;;21.29;57.13;99977.53;7554566;33;38632;-81
2023/09/18 02:13:54;;;;;;;10.90;7.25;;;;;;;21.14;57.57;99978.94;7554566;33;37908;-81
2023/09/18 02:18:10;;;;;;;12.10;7.57;;;;;;;21.31;57.04;99984.34;7554065;33;39960;-81
2023/09/18 02:22:26;;;;;;;12.27;7.22;;;;;;;20.98;58.01;99982.31;7554252;33;40062;-80
2023/09/18 02:26:43;;;;;;;11.27;7.25;;;;;;;21.16;57.54;99987.72;7554455;33;38717;-80
2023/09/18 02:30:59;;;;;;;12.93;7.45;;;;;;;21.05;57.73;99973.47;7554160;33;37157;-81
2023/09/18 02:35:15;;;;;;;11.32;7.65;;;;;;;20.92;58.08;99980.91;7554459;33;40199;-81
2023/09/18 02:39:32;;;;;;;10.23;6.72;;;;;;;20.88;58.13;99981.91;7553749;33;39938;-81
2023/09/18 02:43:49;;;;;;;12.93;7.35;;;;;;;20.82;58.38;99984.06;7554255;33;37867;-80
2023/09/18 02:48:05;;;;;;;11.82;7.15;;;;;;;20.86;58.10;99976.72;7554320;33;38199;-80
2023/09/18 02:52:21;;;;;;;10.73;7.22;;;;;;;20.91;57.96;99970.16;7554069;33;40080;-80
2023/09/18 02:56:38;;;;;;;12.40;7.90;;;;;;;20.84;58.09;99976.25;7554019;33;40749;-81
2023/09/18 03:00:59;;;;;;;10.85;6.55;;;;;;;20.73;58.56;99981.38;7553987;33;37934;-80
2023/09/18 03:05:16;;;;;;;13.07;6.95;;;;;;;20.80;58.26;99980.84;7553783;33;37095;-80
2023/09/18 03:09:32;;;;;;;12.13;7.18;;;;;;;20.84;58.14;99987.31;7553962;33;39148;-80
2023/09/18 03:13:49;;;;;;;13.05;7.03;;;;;;;20.63;58.68;99979.78;7553730;33;40662;-80
2023/09/18 03:18:07;;;;;;;10.65;7.10;;;;;;;20.71;58.40;99977.28;7553602;33;37955;-81
2023/09/18 03:22:23;;;;;;;11.15;7.50;;;;;;;20.74;58.13;99971.09;7553652;33;36190;-80
2023/09/18 03:26:39;;;;;;;11.20;7.15;;;;;;;20.50;59.14;99978.03;7553015;33;39395;-80
2023/09/18 03:30:57;;;;;;;13.23;7.30;;;;;;;20.62;58.62;99972.59;7551180;33;40817;-78
2023/09/18 03:35:19;;;;;;;12.75;7.53;;;;;;;20.68;58.42;99966.88;7556424;33;38291;-79
2023/09/18 03:39:36;;;;;;;14.03;7.40;;;;;;;20.70;58.29;99970.16;7556422;33;38082;-80
2023/09/18 03:43:52;;;;;;;12.32;7.68;;;;;;;20.51;58.81;99965.81;7556652;33;39159;-80
2023/09/18 03:48:09;;;;;;;11.57;7.37;;;;;;;20.62;58.56;99966.25;7556384;33;40851;-80
2023/09/18 03:52:27;;;;;;;11.50;7.50;;;;;;;20.58;58.53;99973.59;7555903;33;38707;-80
2023/09/18 03:56:43;;;;;;;14.15;7.45;;;;;;;20.63;58.37;99965.94;7556275;33;37097;-80
2023/09/18 04:01:00;;;;;;;11.85;7.22;;;;;;;20.59;58.65;99958.59;7555588;33;39341;-80
2023/09/18 04:05:16;;;;;;;11.38;7.62;;;;;;;20.61;58.58;99959.06;7529153;33;40807;-80
2023/09/18 04:09:36;;;;;;;15.02;8.20;;;;;;;20.39;59.19;99963.75;7530318;33;37897;-81
2023/09/18 04:13:52;;;;;;;15.15;8.23;;;;;;;20.45;58.97;99951.38;7530479;33;37310;-79
2023/09/18 04:18:08;;;;;;;11.52;7.45;;;;;;;20.45;58.89;99965.22;7529886;33;39940;-78
2023/09/18 04:22:25;;;;;;;13.90;8.18;;;;;;;20.72;58.15;99959.53;7530367;33;40849;-79
2023/09/18 04:26:41;;;;;;;14.00;8.02;;;;;;;20.27;59.49;99958.13;7527894;33;38766;-79
2023/09/18 04:30:57;;;;;;;12.70;7.30;;;;;;;20.36;59.35;99953.34;7530105;33;37998;-79
2023/09/18 04:35:14;;;;;;;15.88;7.80;;;;;;;20.38;59.20;99955.78;7530454;33;40125;-80
2023/09/18 04:39:31;;;;;;;11.88;7.55;;;;;;;20.22;59.66;99953.56;7530146;33;39797;-80
2023/09/18 04:43:47;;;;;;;11.35;7.07;;;;;;;20.07;60.32;99954.97;7529712;33;38011;-80
2023/09/18 04:48:05;;;;;;;12.70;8.70;;;;;;;20.32;59.67;99949.63;7530075;33;37726;-79
2023/09/18 04:52:22;;;;;;;11.82;7.97;;;;;;;20.02;60.76;99954.31;7529861;33;40120;-80
2023/09/18 04:56:38;;;;;;;15.85;8.73;;;;;;;20.16;60.17;99946.63;7529554;33;39623;-80
2023/09/18 05:00:57;;;;;;;15.05;8.13;;;;;;;20.25;59.89;99939.06;7529515;33;37838;-80
2023/09/18 05:05:14;;;;;;;12.15;8.25;;;;;;;20.24;59.77;99945.75;7547986;33;37288;-80
2023/09/18 05:09:31;;;;;;;13.40;8.90;;;;;;;20.33;59.72;99939.37;7555385;33;39145;-80
2023/09/18 05:13:47;;;;;;;12.68;8.27;;;;;;;20.34;59.63;99938.22;7555166;33;40890;-81
2023/09/18 05:18:04;;;;;;;15.77;7.82;;;;;;;20.19;60.11;99937.63;7555142;33;37812;-80
2023/09/18 05:22:20;;;;;;;12.80;7.80;;;;;;;20.08;60.47;99950.22;7532862;33;37796;-79
2023/09/18 05:26:36;;;;;;;15.32;8.50;;;;;;;20.26;59.91;99949.03;7555040;33;40134;-80
2023/09/18 05:30:53;;;;;;;16.20;8.32;;;;;;;20.35;59.72;99948.13;7554993;33;40052;-69
2023/09/18 05:35:12;;;;;;;11.57;7.47;;;;;;;20.35;60.00;99953.69;7555065;33;38486;-70
2023/09/18 05:39:29;;;;;;;16.02;8.18;;;;;;;20.65;59.33;99960.06;7555045;33;38142;-70
2023/09/18 05:43:46;;;;;;;11.52;7.07;;;;;;;20.62;58.77;99947.69;7554538;33;40083;-71
2023/09/18 05:48:06;;;;;;;14.77;8.40;;;;;;;20.86;58.32;99940.69;7554882;33;40760;-70
2023/09/18 05:52:23;;;;;;;12.37;8.05;;;;;;;21.06;57.77;99946.56;7547531;33;37743;-82
2023/09/18 05:56:39;;;;;;;14.10;7.85;;;;;;;21.19;56.94;99931.63;7534904;33;37103;-81
2023/09/18 06:00:56;;;;;;;13.80;8.13;;;;;;;20.81;58.03;99933.37;7553543;33;40244;-80
2023/09/18 06:05:15;;;;;;;14.43;7.65;;;;;;;20.70;58.40;99925.81;7553882;33;40820;-82
2023/09/18 06:09:32;;;;;;;14.77;8.07;;;;;;;20.90;57.79;99930.53;7554219;33;37734;-83
2023/09/18 06:13:48;;;;;;;14.77;7.82;;;;;;;20.98;57.72;99928.88;7554604;33;37124;-82
2023/09/18 06:18:06;;;;;;;14.35;8.35;;;;;;;21.06;57.41;99928.00;7553298;33;40081;-81
2023/09/18 06:22:23;;;;;;;18.27;8.48;;;;;;;21.36;56.40;99933.41;7554214;33;39993;-81
2023/09/18 06:26:40;;;;;;;12.57;7.62;;;;;;;21.63;55.45;99934.81;7549714;33;38016;-81
2023/09/18 06:30:56;;;;;;;12.18;7.65;;;;;;;21.61;55.50;99931.56;7528867;33;36953;-80
2023/09/18 06:35:12;;;;;;;13.23;7.75;;;;;;;21.78;54.87;99929.75;7528923;33;39349;-80
2023/09/18 06:39:29;;;;;;;13.85;7.95;;;;;;;21.80;54.87;99916.34;7528745;33;40772;-80
2023/09/18 06:43:45;;;;;;;15.18;8.30;;;;;;;21.76;54.86;99921.75;7536591;33;37995;-79
2023/09/18 06:48:02;;;;;;;11.57;7.65;;;;;;;21.16;56.56;99921.19;7553884;33;37138;-71
2023/09/18 06:52:18;;;;;;;14.02;6.97;;;;;;;21.96;54.96;99914.53;7553574;33;40108;-68
2023/09/18 06:56:35;;;;;;;13.15;7.70;;;;;;;22.23;54.07;99910.25;7553409;33;39922;-68
2023/09/18 07:00:52;;;;;;;13.27;7.80;;;;;;;22.26;54.41;99922.63;7553235;33;37986;-68
2023/09/18 07:05:08;;;;;;;13.00;7.72;;;;;;;22.55;53.13;99920.78;7551892;33;37958;-69
2023/09/18 07:09:25;;;;;;;15.77;8.18;;;;;;;22.45;53.04;99914.53;7551874;33;39355;-68
2023/09/18 07:13:43;;;;;;;17.55;7.60;;;;;;;22.42;53.50;99909.69;7552439;33;40006;-69
2023/09/18 07:17:59;;;;;;;14.57;7.60;;;;;;;22.94;52.23;99904.47;7552227;33;38085;-70
2023/09/18 07:22:16;;;;;;;12.27;7.37;;;;;;;22.97;52.27;99901.78;7552583;33;37790;-71
2023/09/18 07:26:33;;;;;;;15.35;7.75;;;;;;;23.42;51.38;99908.22;7553128;33;39301;-70
2023/09/18 07:30:50;;;;;;;12.57;7.87;;;;;;;23.37;51.25;99911.28;7552925;33;40547;-71
2023/09/18 07:35:07;;;;;;;11.77;7.43;;;;;;;23.72;50.28;99919.78;7552810;33;38606;-71
2023/09/18 07:39:24;;;;;;;14.15;7.50;;;;;;;23.81;50.20;99911.28;7552525;33;36819;-71
2023/09/18 07:43:42;;;;;;;12.00;7.65;;;;;;;24.16;49.28;99896.63;7552934;33;41380;-71
2023/09/18 07:47:59;;;;;;;14.77;6.70;;;;;;;24.12;49.39;99884.59;7551981;33;39885;-71
2023/09/18 07:52:16;;;;;;;13.80;7.45;;;;;;;24.09;49.40;99885.31;7552670;33;38003;-70
2023/09/18 07:56:34;;;;;;;11.95;7.28;;;;;;;23.90;49.76;99894.41;7552185;33;37942;-71
2023/09/18 08:00:53;;;;;;;10.07;6.72;;;;;;;24.04;49.84;99885.59;7551777;33;40039;-72
2023/09/18 08:05:10;;;;;;;16.83;7.32;;;;;;;24.15;48.87;99879.13;7551751;33;39913;-71
2023/09/18 08:09:29;;;;;;;12.90;7.25;;;;;;;24.48;48.35;99888.22;7551656;33;37927;-71
2023/09/18 08:13:46;;;;;;;13.68;7.72;;;;;;;24.52;47.83;99866.81;7551277;33;37109;-72
2023/09/18 08:18:03;;;;;;;11.85;7.72;;;;;;;24.44;48.31;99865.03;7553612;33;39198;-72
2023/09/18 08:22:20;;;;;;;14.18;8.18;;;;;;;24.20;49.04;99850.19;7555184;33;40103;-77
2023/09/18 08:26:37;;;;;;;17.52;8.15;;;;;;;24.53;47.80;99860.09;7554769;33;38775;-81
2023/09/18 08:30:54;;;;;;;14.10;8.30;;;;;;;24.42;48.64;99845.09;7555480;33;36775;-81
2023/09/18 08:35:10;;;;;;;13.88;7.57;;;;;;;24.79;48.04;99847.53;7555318;33;39918;-80
2023/09/18 08:39:27;;;;;;;11.55;7.68;;;;;;;25.08;47.20;99846.91;7555087;33;40828;-80
2023/09/18 08:43:45;;;;;;;13.35;7.40;;;;;;;25.04;47.13;99851.63;7555012;33;38716;-80
2023/09/18 08:48:02;;;;;;;11.65;6.62;;;;;;;24.83;47.88;99854.75;7555003;33;37895;-81
2023/09/18 08:52:18;;;;;;;12.02;7.30;;;;;;;25.46;46.35;99853.63;7540627;33;39278;-78
2023/09/18 08:56:35;;;;;;;15.13;7.75;;;;;;;25.73;45.23;99862.03;7550211;33;40015;-81
2023/09/18 09:00:53;;;;;;;12.70;7.20;;;;;;;25.86;44.99;99854.28;7553294;33;38669;-81
2023/09/18 09:05:09;;;;;;;16.55;6.50;;;;;;;25.26;46.58;99866.78;7552626;33;38007;-79
2023/09/18 09:09:28;;;;;;;14.05;7.45;;;;;;;26.19;44.51;99855.63;7553566;33;38928;-79
2023/09/18 09:13:44;;;;;;;12.05;7.28;;;;;;;26.43;43.81;99855.19;7554927;33;40648;-79
2023/09/18 09:18:08;;;;;;;14.07;7.12;;;;;;;26.75;43.55;99854.03;7554426;33;38716;-79
2023/09/18 09:22:25;;;;;;;12.73;7.00;;;;;;;27.10;42.28;99850.06;7553669;33;37146;-79
2023/09/18 09:26:42;;;;;;;11.93;7.40;;;;;;;27.20;41.66;99846.56;7540533;33;39334;-80
2023/09/18 09:31:02;;;;;;;13.62;6.82;;;;;;;27.51;41.03;99847.28;7554387;33;40030;-79
2023/09/18 09:35:30;;;;;;;12.15;6.95;;;;;;;27.50;41.22;99842.91;7553401;33;37898;-79
2023/09/18 09:39:50;;;;;;;10.48;6.78;;;;;;;27.64;40.58;99842.22;7550201;33;37814;-79
2023/09/18 09:44:08;;;;;;;12.15;6.28;;;;;;;27.71;40.75;99840.28;7551280;33;39351;-79
2023/09/18 09:48:25;;;;;;;12.05;6.62;;;;;;;28.25;39.61;99829.50;7527355;33;39880;-78
2023/09/18 09:52:44;;;;;;;13.02;6.75;;;;;;;27.64;41.17;99834.63;7528666;33;37911;-79
2023/09/18 09:57:04;;;;;;;10.80;6.60;;;;;;;28.60;39.14;99813.28;7535474;33;37976;-79
2023/09/18 10:01:20;;;;;;;12.63;6.30;;;;;;;28.88;38.10;99798.56;7553998;33;39274;-81
2023/09/18 10:05:43;;;;;;;13.40;6.55;;;;;;;29.11;38.28;99781.38;7553191;33;40848;-81
2023/09/18 10:10:01;;;;;;;9.48;6.00;;;;;;;28.46;38.88;99786.75;7553740;33;38675;-81
2023/09/18 10:14:20;;;;;;;9.70;6.45;;;;;;;29.04;38.30;99775.75;7552700;33;37885;-80
2023/09/18 10:19:02;;;;;;;10.35;6.20;;;;;;;29.01;38.17;99780.16;7528826;33;39385;-81
2023/09/18 10:23:53;;;;;;;9.57;5.87;;;;;;;29.64;37.06;99773.41;7542312;33;39725;-82
2023/09/18 10:28:12;;;;;;;10.10;6.20;;;;;;;29.42;35.86;99767.78;7540917;33;37589;-82
2023/09/18 10:32:29;;;;;;;9.32;6.10;;;;;;;29.14;36.42;99763.72;7554003;33;36089;-80
2023/09/18 10:36:50;;;;;;;12.20;5.97;;;;;;;29.52;35.82;99750.13;7552196;33;39536;-80
2023/09/18 10:41:08;;;;;;;8.93;5.57;;;;;;;29.80;35.12;99747.75;7553513;33;40677;-81
2023/09/18 10:45:26;;;;;;;10.68;5.43;;;;;;;29.69;35.52;99737.28;7553172;33;37910;-80
2023/09/18 10:49:42;;;;;;;14.07;5.80;;;;;;;29.61;35.43;99729.28;7552844;33;37769;-79
2023/09/18 10:53:59;;;;;;;11.05;5.97;;;;;;;30.00;34.69;99728.44;7554114;33;39581;-79
2023/09/18 10:58:25;;;;;;;10.55;5.90;;;;;;;30.51;34.14;99725.06;7552816;33;39954;-79
2023/09/18 11:02:41;;;;;;;9.02;5.32;;;;;;;30.08;34.72;99724.38;7552360;33;38852;-79
2023/09/18 11:07:05;;;;;;;8.23;5.60;;;;;;;30.51;33.50;99730.69;7554001;33;37076;-79
2023/09/18 11:11:21;;;;;;;10.00;6.43;;;;;;;30.63;33.18;99732.22;7553753;33;39410;-79
2023/09/18 11:15:37;;;;;;;9.38;6.05;;;;;;;30.74;33.28;99714.47;7553345;33;39781;-79
2023/09/18 11:20:18;;;;;;;11.95;5.55;;;;;;;30.53;33.60;99702.16;7553422;33;37672;-79
2023/09/18 11:24:34;;;;;;;15.27;5.45;;;;;;;31.06;32.92;99698.22;7547422;33;37142;-79
2023/09/18 11:28:52;;;;;;;8.23;5.40;;;;;;;31.60;32.12;99696.97;7552922;33;39395;-80
2023/09/18 11:33:10;;;;;;;8.13;5.75;;;;;;;31.30;33.03;99698.38;7539142;33;40805;-80
2023/09/18 11:37:26;;;;;;;9.57;6.05;;;;;;;32.15;31.03;99679.03;7551509;33;37888;-79
2023/09/18 11:41:43;;;;;;;12.55;6.97;;;;;;;32.22;30.93;99692.25;7552528;33;36449;-79
2023/09/18 11:46:01;;;;;;;11.25;6.53;;;;;;;32.15;31.44;99670.59;7552880;33;39406;-80
2023/09/18 11:50:21;;;;;;;15.07;6.53;;;;;;;31.92;31.13;99685.31;7553207;33;39608;-79
2023/09/18 11:54:41;;;;;;;11.18;6.97;;;;;;;31.49;31.73;99665.22;7554407;33;38598;-79
2023/09/18 11:58:57;;;;;;;15.38;6.65;;;;;;;31.49;31.47;99656.78;7556371;33;36273;-80
2023/09/18 12:03:27;;;;;;;10.32;6.43;;;;;;;31.90;30.92;99658.78;7555979;33;39378;-80
2023/09/18 12:07:45;;;;;;;10.90;7.47;;;;;;;31.03;32.39;99654.00;7556342;33;39949;-78
2023/09/18 12:12:05;;;;;;;9.35;6.95;;;;;;;31.40;31.81;99648.81;7555919;33;37894;-79
2023/09/18 12:16:21;;;;;;;12.10;7.18;;;;;;;31.54;31.30;99642.28;7554804;33;37840;-80
2023/09/18 12:20:44;;;;;;;12.13;6.60;;;;;;;31.82;31.74;99647.59;7555989;33;39427;-79
2023/09/18 12:25:14;;;;;;;10.57;6.75;;;;;;;31.90;31.14;99658.78;7555908;33;40688;-79
2023/09/18 12:29:32;;;;;;;11.25;7.12;;;;;;;31.57;31.72;99655.53;7555866;33;37930;-79
2023/09/18 12:33:49;;;;;;;11.07;6.60;;;;;;;31.03;32.57;99647.56;7554571;33;37077;-79
2023/09/18 12:38:15;;;;;;;9.70;7.00;;;;;;;31.37;32.18;99627.91;7555773;33;39355;-79
2023/09/18 12:42:31;;;;;;;10.15;7.25;;;;;;;30.70;32.90;99630.91;7555706;33;40138;-79
2023/09/18 12:46:50;;;;;;;15.50;7.32;;;;;;;30.69;32.77;99632.09;7555508;33;38700;-79
2023/09/18 12:51:07;;;;;;;9.40;6.35;;;;;;;31.16;32.78;99628.13;7554538;33;38278;-79
2023/09/18 12:55:27;;;;;;;12.52;7.25;;;;;;;31.40;32.57;99609.41;7555558;33;39377;-79
2023/09/18 12:59:43;;;;;;;10.45;7.50;;;;;;;31.51;32.28;99604.50;7555478;33;40095;-79
2023/09/18 13:04:05;;;;;;;11.00;7.03;;;;;;;31.55;31.85;99590.37;7553738;33;38700;-80
2023/09/18 13:08:23;;;;;;;11.27;7.30;;;;;;;31.53;31.79;99587.16;7555708;33;37815;-79
2023/09/18 13:12:46;;;;;;;10.82;6.45;;;;;;;30.88;32.46;99596.19;7555329;33;40107;-79
2023/09/18 13:17:04;;;;;;;11.05;7.20;;;;;;;31.14;31.67;99588.34;7555327;33;40689;-79
2023/09/18 13:21:20;;;;;;;11.23;6.60;;;;;;;31.59;30.72;99582.66;7555243;33;39831;-80
2023/09/18 13:25:40;;;;;;;9.85;7.12;;;;;;;31.02;31.79;99576.38;7555169;33;37324;-79
2023/09/18 13:29:56;;;;;;;10.82;7.18;;;;;;;31.37;31.66;99576.44;7555211;33;39100;-79
2023/09/18 13:34:13;;;;;;;11.60;7.12;;;;;;;31.56;31.07;99560.97;7554999;33;39915;-79
2023/09/18 13:38:29;;;;;;;11.18;6.37;;;;;;;30.88;31.77;99553.97;7555031;33;38777;-80
2023/09/18 13:42:46;;;;;;;10.95;6.53;;;;;;;31.23;31.24;99546.41;7555048;33;37841;-79
2023/09/18 13:47:04;;;;;;;10.57;6.50;;;;;;;31.66;30.47;99543.13;7555203;33;39172;-79
2023/09/18 13:51:21;;;;;;;12.73;6.55;;;;;;;31.40;31.85;99536.19;7554947;33;39857;-79
2023/09/18 13:55:37;;;;;;;20.55;7.25;;;;;;;31.44;31.37;99532.09;7554912;33;38777;-79
2023/09/18 13:59:53;;;;;;;12.68;6.37;;;;;;;31.96;30.01;99541.53;7554831;33;38030;-80
2023/09/18 14:04:10;;;;;;;11.90;6.45;;;;;;;31.79;29.99;99527.25;7554555;33;39459;-79
2023/09/18 14:08:26;;;;;;;11.93;6.57;;;;;;;31.66;30.29;99514.16;7554362;33;40843;-79
2023/09/18 14:12:44;;;;;;;9.00;6.25;;;;;;;31.78;29.72;99511.56;7554723;33;38595;-79
2023/09/18 14:17:01;;;;;;;9.77;6.45;;;;;;;31.95;29.62;99500.47;7553894;33;37914;-78
2023/09/18 14:21:17;;;;;;;10.15;6.45;;;;;;;31.98;29.59;99496.81;7554643;33;39486;-80
2023/09/18 14:25:34;;;;;;;11.85;6.70;;;;;;;31.81;29.59;99495.84;7554524;33;40863;-80
2023/09/18 14:29:50;;;;;;;15.57;6.45;;;;;;;31.46;30.86;99486.62;7554562;33;38569;-79
2023/09/18 14:34:08;;;;;;;10.27;6.20;;;;;;;30.81;31.33;99490.13;7554418;33;37209;-79
2023/09/18 14:38:25;;;;;;;12.05;6.32;;;;;;;30.84;31.28;99485.69;7554510;33;39924;-79
2023/09/18 14:42:41;;;;;;;16.00;7.22;;;;;;;30.65;31.80;99482.25;7554321;33;40975;-80
2023/09/18 14:46:59;;;;;;;11.63;7.05;;;;;;;30.52;32.21;99492.41;7554224;33;37950;-80
2023/09/18 14:51:17;;;;;;;10.95;6.62;;;;;;;30.01;33.19;99483.53;7553102;33;36032;-79
2023/09/18 14:55:33;;;;;;;10.35;6.43;;;;;;;30.65;31.94;99481.44;7554024;33;39406;-79
2023/09/18 14:59:49;;;;;;;12.30;6.82;;;;;;;30.15;32.55;99486.25;7554050;33;40857;-80
2023/09/18 15:04:05;;;;;;;9.70;6.30;;;;;;;30.15;33.03;99482.63;7553763;33;38146;-79
2023/09/18 15:08:22;;;;;;;14.87;6.70;;;;;;;30.13;32.84;99474.63;7554060;33;36748;-79
2023/09/18 15:12:42;;;;;;;11.07;6.80;;;;;;;30.25;32.82;99464.91;7553887;33;39471;-80
2023/09/18 15:16:58;;;;;;;10.73;6.87;;;;;;;30.03;33.15;99457.81;7540446;33;40709;-79
2023/09/18 15:21:14;;;;;;;17.42;6.10;;;;;;;29.67;33.88;99452.41;7553654;33;38126;-79
2023/09/18 15:25:35;;;;;;;10.63;6.80;;;;;;;30.37;32.76;99443.13;7553452;33;37058;-79
2023/09/18 15:29:51;;;;;;;11.55;6.47;;;;;;;29.51;34.59;99439.66;7553625;33;40116;-79
2023/09/18 15:34:09;;;;;;;11.12;6.78;;;;;;;30.11;33.32;99426.47;7553362;33;40028;-79
2023/09/18 15:38:27;;;;;;;10.57;6.82;;;;;;;30.26;32.79;99420.72;7553281;33;36820;-80
2023/09/18 15:42:44;;;;;;;10.57;6.85;;;;;;;30.19;33.16;99417.97;7553157;33;38285;-79
2023/09/18 15:47:00;;;;;;;13.80;6.60;;;;;;;30.21;33.31;99412.72;7553155;33;40473;-79
2023/09/18 15:51:16;;;;;;;16.70;7.20;;;;;;;29.89;33.59;99405.31;7553012;33;39939;-79
2023/09/18 15:55:33;;;;;;;9.50;6.32;;;;;;;29.89;33.67;99400.53;7552908;33;38703;-79
2023/09/18 15:59:50;;;;;;;11.75;6.80;;;;;;;29.91;33.64;99409.34;7552835;33;37852;-79
2023/09/18 16:04:06;;;;;;;12.48;6.35;;;;;;;29.73;33.78;99398.19;7552568;33;39151;-79
2023/09/18 16:08:23;;;;;;;14.13;6.60;;;;;;;29.61;33.76;99400.69;7552472;33;40040;-80
2023/09/18 16:12:39;;;;;;;11.27;6.53;;;;;;;29.33;34.41;99391.22;7552403;33;38774;-79
2023/09/18 16:16:56;;;;;;;14.35;6.85;;;;;;;29.20;34.57;99391.69;7552388;33;37024;-79
2023/09/18 16:21:12;;;;;;;11.00;6.55;;;;;;;29.03;34.85;99379.31;7552222;33;39252;-79
2023/09/18 16:25:28;;;;;;;11.12;6.70;;;;;;;28.90;35.09;99377.34;7552191;33;39772;-78
2023/09/18 16:29:44;;;;;;;12.30;6.40;;;;;;;28.54;35.86;99378.22;7552078;33;38938;-79
2023/09/18 16:34:01;;;;;;;11.55;6.57;;;;;;;28.82;35.16;99363.38;7551941;33;37899;-79
2023/09/18 16:38:18;;;;;;;13.80;6.90;;;;;;;28.50;36.04;99357.03;7552830;33;40063;-79
2023/09/18 16:42:34;;;;;;;13.15;6.82;;;;;;;28.27;36.13;99350.66;7555739;33;39746;-79
2023/09/18 16:46:50;;;;;;;13.00;6.95;;;;;;;28.22;36.24;99339.06;7555625;33;38150;-79
2023/09/18 16:51:08;;;;;;;15.32;6.72;;;;;;;28.03;36.70;99349.47;7555427;33;37903;-79
2023/09/18 16:55:26;;;;;;;12.63;6.47;;;;;;;27.92;36.94;99348.66;7555219;33;39400;-80
2023/09/18 16:59:42;;;;;;;12.43;6.62;;;;;;;28.01;36.81;99345.47;7555584;33;40720;-74
2023/09/18 17:03:59;;;;;;;13.60;6.90;;;;;;;28.18;36.41;99339.06;7555188;33;38744;-81
2023/09/18 17:08:15;;;;;;;10.98;6.55;;;;;;;28.10;36.61;99343.06;7555258;33;38211;-81
2023/09/18 17:12:32;;;;;;;12.20;6.72;;;;;;;28.14;36.80;99326.25;7555419;33;39299;-80
2023/09/18 17:16:49;;;;;;;13.95;6.43;;;;;;;27.76;37.29;99323.03;7555441;33;40573;-79
2023/09/18 17:21:06;;;;;;;10.85;7.03;;;;;;;27.74;37.48;99323.44;7554709;33;38685;-80
2023/09/18 17:25:22;;;;;;;13.68;6.87;;;;;;;27.68;37.52;99311.03;7554303;33;36931;-80
2023/09/18 17:29:38;;;;;;;13.55;7.12;;;;;;;27.35;38.27;99324.19;7554082;33;39539;-79
2023/09/18 17:33:55;;;;;;;11.30;6.65;;;;;;;27.65;37.58;99318.25;7553970;33;40097;-80
2023/09/18 17:38:13;;;;;;;12.02;6.30;;;;;;;27.47;37.86;99311.81;7554132;33;38668;-80
2023/09/18 17:42:29;;;;;;;11.65;7.12;;;;;;;27.14;38.60;99310.94;7554143;33;37117;-80
2023/09/18 17:46:46;;;;;;;14.35;7.00;;;;;;;27.12;38.48;99318.91;7552227;33;39464;-80
2023/09/18 17:51:03;;;;;;;11.32;6.82;;;;;;;27.12;38.55;99324.53;7552826;33;40657;-80
2023/09/18 17:55:20;;;;;;;11.23;6.80;;;;;;;26.77;39.18;99320.41;7553809;33;36434;-80
2023/09/18 17:59:38;;;;;;;12.35;7.03;;;;;;;26.93;38.62;99322.84;7554047;33;37760;-79
2023/09/18 18:03:57;;;;;;;15.50;6.97;;;;;;;26.90;38.71;99321.63;7553966;33;39199;-80
2023/09/18 18:08:14;;;;;;;9.65;6.53;;;;;;;26.98;38.19;99322.47;7554691;33;39782;-79
2023/09/18 18:12:32;;;;;;;15.95;6.62;;;;;;;26.87;38.17;99327.22;7553881;33;38692;-79
2023/09/18 18:16:48;;;;;;;13.45;6.35;;;;;;;27.15;37.72;99323.72;7553673;33;37896;-80
2023/09/18 18:21:05;;;;;;;12.27;6.65;;;;;;;26.74;38.52;99326.78;7553699;33;39176;-79
2023/09/18 18:25:23;;;;;;;11.43;6.40;;;;;;;27.03;38.10;99316.50;7552035;33;39769;-80
2023/09/18 18:29:40;;;;;;;12.37;7.00;;;;;;;27.02;38.13;99314.09;7553873;33;38777;-80
2023/09/18 18:34:03;;;;;;;15.05;6.85;;;;;;;26.94;38.13;99311.28;7553353;33;36131;-80
2023/09/18 18:38:23;;;;;;;12.73;6.03;;;;;;;26.82;38.29;99322.81;7553476;33;40222;-79
2023/09/18 18:42:40;;;;;;;18.62;6.78;;;;;;;26.80;38.26;99316.81;7553309;33;40348;-79
2023/09/18 18:46:57;;;;;;;12.50;6.32;;;;;;;26.82;38.09;99302.44;7553296;33;39170;-79
2023/09/18 18:51:20;;;;;;;14.82;7.37;;;;;;;26.76;38.00;99318.78;7550859;33;36694;-78
2023/09/18 18:55:37;;;;;;;14.23;6.40;;;;;;;26.61;38.21;99315.09;7553235;33;39976;-79
2023/09/18 18:59:53;;;;;;;13.48;6.22;;;;;;;26.53;38.51;99305.09;7553671;33;40804;-80
2023/09/18 19:04:09;;;;;;;15.98;6.35;;;;;;;26.81;37.61;99298.84;7552202;33;38031;-79
2023/09/18 19:08:27;;;;;;;10.52;5.90;;;;;;;26.82;37.66;99288.44;7552888;33;37241;-79
2023/09/18 19:12:46;;;;;;;13.80;6.35;;;;;;;26.45;37.92;99287.47;7553346;33;40248;-80
2023/09/18 19:17:04;;;;;;;12.13;6.00;;;;;;;26.56;37.91;99276.34;7552985;33;40732;-79
2023/09/18 19:21:22;;;;;;;13.70;5.47;;;;;;;26.68;37.87;99272.44;7552423;33;35578;-80
2023/09/18 19:25:56;;;;;;;13.50;6.40;;;;;;;26.47;38.20;99273.91;7551428;33;37196;-80
2023/09/18 19:30:12;;;;;;;13.27;6.07;;;;;;;26.36;38.50;99276.66;7552668;33;39123;-79
2023/09/18 19:34:29;;;;;;;10.73;6.05;;;;;;;26.08;38.28;99274.50;7552332;33;39750;-81
2023/09/18 19:38:45;;;;;;;15.23;5.90;;;;;;;26.35;37.81;99272.25;7552276;33;37886;-80
2023/09/18 19:43:02;;;;;;;17.30;6.12;;;;;;;26.29;37.60;99265.44;7552319;33;38171;-80
2023/09/18 19:47:20;;;;;;;11.80;6.25;;;;;;;26.26;37.66;99254.25;7552198;33;40118;-81
2023/09/18 19:51:36;;;;;;;11.20;5.78;;;;;;;26.28;37.45;99263.03;7550364;33;39888;-80
2023/09/18 19:55:54;;;;;;;11.57;6.07;;;;;;;26.48;37.12;99247.56;7551760;33;36469;-81
2023/09/18 20:00:12;;;;;;;14.00;6.18;;;;;;;26.23;37.59;99248.25;7543538;33;275088;-79